createdAt,value
2023-04-07T00:00:55.988Z,98056.44
2023-04-07T00:03:23.941Z,98063.00
2023-04-07T00:05:51.295Z,98064.47
2023-04-07T00:08:18.446Z,98058.78
2023-04-07T00:10:45.970Z,98054.00
2023-04-07T00:13:13.072Z,98056.19
2023-04-07T00:15:40.286Z,98049.16
2023-04-07T00:18:07.472Z,98061.91
2023-04-07T00:20:34.710Z,98061.03
2023-04-07T00:23:01.848Z,98057.22
2023-04-07T00:25:28.917Z,98061.31
2023-04-07T00:27:56.135Z,98052.53
2023-04-07T00:30:23.492Z,98058.75
2023-04-07T00:32:52.037Z,98055.13
2023-04-07T00:35:19.438Z,98051.88
2023-04-07T00:37:47.432Z,98056.78
2023-04-07T00:40:14.773Z,98048.50
2023-04-07T00:42:42.146Z,98053.97
2023-04-07T00:45:10.990Z,98054.78
2023-04-07T00:47:38.657Z,98062.59
2023-04-07T00:50:06.483Z,98060.22
2023-04-07T00:52:34.371Z,98067.28
2023-04-07T00:55:01.897Z,98065.91
2023-04-07T00:57:29.071Z,98057.63
2023-04-07T00:59:56.756Z,98061.75
2023-04-07T01:02:37.372Z,98054.94
2023-04-07T01:05:15.949Z,98054.69
2023-04-07T01:08:04.535Z,98060.94
2023-04-07T01:10:44.199Z,98051.94
2023-04-07T01:13:42.873Z,98044.94
2023-04-07T01:16:31.609Z,98054.75
2023-04-07T01:19:11.982Z,98052.28
2023-04-07T01:21:42.215Z,98054.16
2023-04-07T01:24:48.311Z,98047.44
2023-04-07T01:27:48.945Z,98060.78
2023-04-07T01:30:17.280Z,98047.56
2023-04-07T01:32:47.396Z,98059.78
2023-04-07T01:35:15.362Z,98043.81
2023-04-07T01:37:45.952Z,98051.06
2023-04-07T01:40:13.612Z,98037.56
2023-04-07T01:42:43.184Z,98067.59
2023-04-07T01:45:11.008Z,98064.19
2023-04-07T01:47:39.735Z,98056.69
2023-04-07T01:50:11.426Z,98058.41
2023-04-07T01:52:40.488Z,98051.09
2023-04-07T01:55:08.384Z,98047.47
2023-04-07T01:57:39.181Z,98044.63
2023-04-07T02:00:13.274Z,98040.72
2023-04-07T02:02:48.806Z,98058.09
2023-04-07T02:05:20.825Z,98047.47
2023-04-07T02:08:01.893Z,98062.09
2023-04-07T02:10:30.429Z,98060.75
2023-04-07T02:13:02.151Z,98053.69
2023-04-07T02:15:32.408Z,98065.59
2023-04-07T02:18:01.640Z,98064.13
2023-04-07T02:20:30.279Z,98060.72
2023-04-07T02:22:58.159Z,98062.59
2023-04-07T02:25:29.194Z,98061.72
2023-04-07T02:27:58.958Z,98057.91
2023-04-07T02:30:26.634Z,98056.06
2023-04-07T02:32:54.268Z,98052.97
2023-04-07T02:35:21.658Z,98054.88
2023-04-07T02:37:49.071Z,98051.91
2023-04-07T02:40:16.689Z,98049.28
2023-04-07T02:42:44.253Z,98052.16
2023-04-07T02:45:11.914Z,98053.34
2023-04-07T02:47:40.289Z,98045.59
2023-04-07T02:50:08.015Z,98046.53
2023-04-07T02:52:36.204Z,98042.44
2023-04-07T02:55:09.087Z,98049.16
2023-04-07T02:57:36.383Z,98060.75
2023-04-07T03:00:07.454Z,98060.19
2023-04-07T03:02:54.781Z,98060.91
2023-04-07T03:05:22.414Z,98046.38
2023-04-07T03:07:49.618Z,98048.13
2023-04-07T03:10:17.044Z,98041.06
2023-04-07T03:12:44.659Z,98046.53
2023-04-07T03:15:12.150Z,98042.78
2023-04-07T03:17:42.494Z,98037.75
2023-04-07T03:20:10.894Z,98047.28
2023-04-07T03:22:38.531Z,98054.28
2023-04-07T03:25:10.202Z,98051.59
2023-04-07T03:27:37.349Z,98041.78
2023-04-07T03:30:06.731Z,98051.09
2023-04-07T03:32:33.851Z,98050.94
2023-04-07T03:35:01.198Z,98049.72
2023-04-07T03:37:28.286Z,98054.59
2023-04-07T03:39:55.849Z,98047.75
2023-04-07T03:42:26.726Z,98046.53
2023-04-07T03:45:00.161Z,98051.06
2023-04-07T03:47:27.526Z,98047.28
2023-04-07T03:49:59.781Z,98048.25
2023-04-07T03:52:28.197Z,98049.31
2023-04-07T03:55:02.240Z,98053.34
2023-04-07T03:57:32.231Z,98049.94
2023-04-07T03:59:59.539Z,98062.31
2023-04-07T04:02:31.504Z,98072.31
2023-04-07T04:04:59.511Z,98061.06
2023-04-07T04:07:27.665Z,98058.91
2023-04-07T04:10:00.268Z,98062.69
2023-04-07T04:12:29.083Z,98065.63
2023-04-07T04:15:05.288Z,98064.03
2023-04-07T04:17:32.794Z,98067.16
2023-04-07T04:20:00.070Z,98064.66
2023-04-07T04:22:41.512Z,98064.50
2023-04-07T04:25:09.237Z,98076.75
2023-04-07T04:27:37.192Z,98078.44
2023-04-07T04:30:11.426Z,98075.97
2023-04-07T04:32:49.954Z,98078.84
2023-04-07T04:35:21.119Z,98066.84
2023-04-07T04:38:01.461Z,98074.47
2023-04-07T04:40:28.638Z,98082.22
2023-04-07T04:42:56.099Z,98090.94
2023-04-07T04:45:24.580Z,98088.78
2023-04-07T04:47:51.909Z,98103.75
2023-04-07T04:50:19.258Z,98102.00
2023-04-07T04:52:47.290Z,98109.09
2023-04-07T04:55:21.599Z,98111.66
2023-04-07T04:57:49.200Z,98108.06
2023-04-07T05:00:22.364Z,98099.34
2023-04-07T05:02:55.710Z,98099.34
2023-04-07T05:05:23.535Z,98112.66
2023-04-07T05:07:52.480Z,98111.72
2023-04-07T05:10:20.790Z,98105.81
2023-04-07T05:12:51.221Z,98115.91
2023-04-07T05:15:18.510Z,98110.75
2023-04-07T05:17:50.843Z,98116.56
2023-04-07T05:20:23.418Z,98119.84
2023-04-07T05:22:50.803Z,98113.84
2023-04-07T05:25:20.088Z,98102.13
2023-04-07T05:27:50.876Z,98094.41
2023-04-07T05:30:18.768Z,98094.56
2023-04-07T05:32:46.281Z,98103.75
2023-04-07T05:35:22.921Z,98104.22
2023-04-07T05:37:55.173Z,98108.84
2023-04-07T05:40:22.471Z,98106.03
2023-04-07T05:42:50.617Z,98096.00
2023-04-07T05:45:17.819Z,98107.41
2023-04-07T05:47:51.047Z,98108.63
2023-04-07T05:50:24.857Z,98106.34
2023-04-07T05:52:52.106Z,98105.53
2023-04-07T05:55:23.389Z,98098.91
2023-04-07T05:57:51.954Z,98101.22
2023-04-07T06:00:22.279Z,98095.00
2023-04-07T06:02:59.997Z,98090.00
2023-04-07T06:05:28.005Z,98096.13
2023-04-07T06:07:56.777Z,98090.00
2023-04-07T06:10:27.048Z,98089.00
2023-04-07T06:12:54.197Z,98085.63
2023-04-07T06:15:21.574Z,98087.88
2023-04-07T06:17:48.769Z,98093.28
2023-04-07T06:20:15.961Z,98097.13
2023-04-07T06:22:43.616Z,98094.41
2023-04-07T06:25:10.971Z,98088.63
2023-04-07T06:27:38.100Z,98082.03
2023-04-07T06:30:06.015Z,98090.75
2023-04-07T06:32:33.810Z,98092.78
2023-04-07T06:35:01.952Z,98085.94
2023-04-07T06:37:29.337Z,98096.69
2023-04-07T06:39:56.647Z,98088.91
2023-04-07T06:42:23.781Z,98090.09
2023-04-07T06:45:00.229Z,98092.72
2023-04-07T06:47:27.349Z,98101.16
2023-04-07T06:49:54.442Z,98089.88
2023-04-07T06:52:22.003Z,98096.22
2023-04-07T06:54:49.088Z,98095.13
2023-04-07T06:57:16.195Z,98095.69
2023-04-07T06:59:43.310Z,98089.19
2023-04-07T07:02:10.683Z,98090.28
2023-04-07T07:04:38.184Z,98097.25
2023-04-07T07:07:05.342Z,98098.84
2023-04-07T07:09:32.466Z,98099.59
2023-04-07T07:11:59.559Z,98096.25
2023-04-07T07:14:26.656Z,98102.09
2023-04-07T07:16:53.743Z,98099.47
2023-04-07T07:19:20.950Z,98102.97
2023-04-07T07:21:48.199Z,98101.25
2023-04-07T07:24:15.710Z,98101.50
2023-04-07T07:26:44.176Z,98096.63
2023-04-07T07:29:11.928Z,98089.97
2023-04-07T07:31:39.040Z,98090.06
2023-04-07T07:34:06.171Z,98088.03
2023-04-07T07:36:33.330Z,98092.75
2023-04-07T07:39:00.835Z,98089.91
2023-04-07T07:41:27.915Z,98097.41
2023-04-07T07:43:55.081Z,98096.78
2023-04-07T07:46:24.071Z,98090.28
2023-04-07T07:48:51.227Z,98092.69
2023-04-07T07:51:18.700Z,98097.03
2023-04-07T07:53:46.718Z,98091.03
2023-04-07T07:56:14.313Z,98094.78
2023-04-07T07:58:41.890Z,98093.88
2023-04-07T08:01:09.075Z,98085.72
2023-04-07T08:03:36.331Z,98089.22
2023-04-07T08:06:03.632Z,98097.22
2023-04-07T08:08:30.725Z,98092.00
2023-04-07T08:10:57.907Z,98081.84
2023-04-07T08:13:24.973Z,98073.97
2023-04-07T08:15:52.134Z,98076.47
2023-04-07T08:18:19.314Z,98080.59
2023-04-07T08:20:46.984Z,98067.63
2023-04-07T08:23:14.082Z,98072.13
2023-04-07T08:25:41.309Z,98062.47
2023-04-07T08:28:08.922Z,98072.69
2023-04-07T08:30:36.733Z,98071.09
2023-04-07T08:33:07.163Z,98062.97
2023-04-07T08:35:35.165Z,98060.88
2023-04-07T08:38:03.856Z,98067.97
2023-04-07T08:40:32.838Z,98060.28
2023-04-07T08:43:01.980Z,98062.09
2023-04-07T08:45:32.179Z,98052.97
2023-04-07T08:48:04.684Z,98052.13
2023-04-07T08:50:33.003Z,98047.34
2023-04-07T08:53:07.465Z,98045.41
2023-04-07T08:55:36.364Z,98043.13
2023-04-07T08:58:04.601Z,98044.53
2023-04-07T09:00:32.996Z,98042.66
2023-04-07T09:03:01.284Z,98041.38
2023-04-07T09:05:31.224Z,98045.41
2023-04-07T09:07:58.476Z,98049.31
2023-04-07T09:10:25.836Z,98044.19
2023-04-07T09:12:52.927Z,98039.94
2023-04-07T09:15:22.593Z,98035.94
2023-04-07T09:17:49.925Z,98044.50
2023-04-07T09:20:18.106Z,98051.56
2023-04-07T09:22:48.624Z,98038.38
2023-04-07T09:25:20.028Z,98038.44
2023-04-07T09:28:02.127Z,98041.31
2023-04-07T09:30:31.526Z,98041.91
2023-04-07T09:32:59.974Z,98025.63
2023-04-07T09:35:29.162Z,98041.22
2023-04-07T09:38:07.189Z,98038.50
2023-04-07T09:40:36.135Z,98038.91
2023-04-07T09:43:04.714Z,98031.50
2023-04-07T09:45:35.800Z,98021.56
2023-04-07T09:48:20.934Z,98014.56
2023-04-07T09:50:52.293Z,98030.84
2023-04-07T09:53:20.725Z,98025.03
2023-04-07T09:55:49.154Z,98027.13
2023-04-07T09:58:17.160Z,98034.78
2023-04-07T10:00:46.198Z,98022.94
2023-04-07T10:03:14.332Z,98027.53
2023-04-07T10:05:41.812Z,98032.72
2023-04-07T10:08:10.601Z,98025.53
2023-04-07T10:10:43.487Z,98024.56
2023-04-07T10:13:12.803Z,98024.31
2023-04-07T10:15:40.299Z,98014.75
2023-04-07T10:18:09.264Z,97998.72
2023-04-07T10:20:43.661Z,98008.50
2023-04-07T10:23:44.195Z,98000.97
2023-04-07T10:26:13.203Z,98009.22
2023-04-07T10:28:42.819Z,98001.44
2023-04-07T10:31:11.030Z,98000.09
2023-04-07T10:33:50.143Z,97999.44
2023-04-07T10:36:20.701Z,97991.53
2023-04-07T10:39:09.636Z,97987.34
2023-04-07T10:41:38.622Z,97990.59
2023-04-07T10:44:07.135Z,97988.53
2023-04-07T10:46:46.364Z,97983.47
2023-04-07T10:49:17.003Z,97984.13
2023-04-07T10:52:13.096Z,97986.22
2023-04-07T10:54:41.147Z,97985.72
2023-04-07T10:57:13.966Z,97979.00
2023-04-07T11:00:12.807Z,97980.19
2023-04-07T11:02:41.594Z,97970.97
2023-04-07T11:05:09.183Z,97970.31
2023-04-07T11:08:07.555Z,97964.56
2023-04-07T11:10:36.100Z,97964.75
2023-04-07T11:13:09.878Z,97971.06
2023-04-07T11:15:40.423Z,97960.63
2023-04-07T11:18:19.632Z,97959.22
2023-04-07T11:20:56.016Z,97960.63
2023-04-07T11:23:25.770Z,97960.66
2023-04-07T11:26:03.127Z,97950.53
2023-04-07T11:28:31.478Z,97950.72
2023-04-07T11:31:00.538Z,97946.72
2023-04-07T11:33:30.536Z,97957.53
2023-04-07T11:36:00.276Z,97943.63
2023-04-07T11:38:38.853Z,97945.94
2023-04-07T11:41:14.502Z,97958.38
2023-04-07T11:43:42.685Z,97943.78
2023-04-07T11:46:15.507Z,97944.78
2023-04-07T11:48:44.879Z,97935.00
2023-04-07T11:51:26.681Z,97939.41
2023-04-07T11:53:57.754Z,97931.09
2023-04-07T11:56:25.327Z,97939.31
2023-04-07T11:58:54.304Z,97939.31
2023-04-07T12:01:25.049Z,97944.22
2023-04-07T12:04:04.335Z,97932.97
2023-04-07T12:06:35.505Z,97923.53
2023-04-07T12:09:07.758Z,97929.19
2023-04-07T12:11:36.874Z,97935.91
2023-04-07T12:14:05.575Z,97927.19
2023-04-07T12:16:33.526Z,97926.81
2023-04-07T12:19:00.612Z,97928.47
2023-04-07T12:21:27.941Z,97930.84
2023-04-07T12:23:55.239Z,97930.03
2023-04-07T12:26:23.544Z,97926.03
2023-04-07T12:28:50.691Z,97930.41
2023-04-07T12:31:18.493Z,97927.56
2023-04-07T12:33:45.734Z,97921.16
2023-04-07T12:36:13.268Z,97925.97
2023-04-07T12:38:40.767Z,97925.03
2023-04-07T12:41:08.871Z,97915.09
2023-04-07T12:43:36.241Z,97925.78
2023-04-07T12:46:04.292Z,97917.03
2023-04-07T12:48:31.402Z,97911.75
2023-04-07T12:50:58.769Z,97906.84
2023-04-07T12:53:26.213Z,97907.69
2023-04-07T12:55:53.815Z,97901.69
2023-04-07T12:58:20.907Z,97897.19
2023-04-07T13:00:49.172Z,97897.72
2023-04-07T13:03:16.442Z,97893.75
2023-04-07T13:05:43.979Z,97891.59
2023-04-07T13:08:11.444Z,97887.75
2023-04-07T13:10:39.561Z,97888.84
2023-04-07T13:13:06.661Z,97885.16
2023-04-07T13:15:34.549Z,97889.16
2023-04-07T13:18:01.651Z,97877.75
2023-04-07T13:20:30.651Z,97884.38
2023-04-07T13:23:07.448Z,97887.41
2023-04-07T13:25:37.792Z,97879.94
2023-04-07T13:28:05.471Z,97882.72
2023-04-07T13:30:33.396Z,97882.63
2023-04-07T13:33:00.640Z,97881.63
2023-04-07T13:35:30.790Z,97882.78
2023-04-07T13:37:57.841Z,97881.94
2023-04-07T13:40:25.849Z,97885.81
2023-04-07T13:42:53.397Z,97885.13
2023-04-07T13:45:21.290Z,97887.59
2023-04-07T13:47:48.454Z,97874.91
2023-04-07T13:50:16.562Z,97879.50
2023-04-07T13:52:43.585Z,97877.25
2023-04-07T13:55:11.944Z,97878.53
2023-04-07T13:57:39.258Z,97880.03
2023-04-07T14:00:07.745Z,97879.78
2023-04-07T14:02:36.061Z,97880.06
2023-04-07T14:05:04.002Z,97884.91
2023-04-07T14:07:31.368Z,97879.78
2023-04-07T14:09:58.830Z,97865.72
2023-04-07T14:12:26.153Z,97866.47
2023-04-07T14:14:55.110Z,97874.66
2023-04-07T14:17:22.432Z,97885.97
2023-04-07T14:19:49.622Z,97880.09
2023-04-07T14:22:16.801Z,97879.91
2023-04-07T14:24:44.069Z,97875.41
2023-04-07T14:27:11.413Z,97879.00
2023-04-07T14:29:38.508Z,97877.13
2023-04-07T14:32:05.729Z,97868.03
2023-04-07T14:34:32.876Z,97868.53
2023-04-07T14:37:00.345Z,97877.78
2023-04-07T14:39:27.587Z,97875.56
2023-04-07T14:41:54.842Z,97872.00
2023-04-07T14:44:22.444Z,97871.09
2023-04-07T14:46:49.748Z,97874.50
2023-04-07T14:49:17.020Z,97869.84
2023-04-07T14:51:44.918Z,97867.13
2023-04-07T14:54:12.005Z,97866.00
2023-04-07T14:56:39.103Z,97869.09
2023-04-07T14:59:06.248Z,97864.13
2023-04-07T15:01:33.528Z,97869.22
2023-04-07T15:04:01.240Z,97862.13
2023-04-07T15:06:28.384Z,97867.41
2023-04-07T15:08:55.628Z,97863.19
2023-04-07T15:11:22.755Z,97869.72
2023-04-07T15:13:50.368Z,97865.84
2023-04-07T15:16:18.034Z,97859.75
2023-04-07T15:18:47.429Z,97862.09
2023-04-07T15:21:15.414Z,97851.31
2023-04-07T15:23:42.873Z,97858.31
2023-04-07T15:26:10.665Z,97851.03
2023-04-07T15:28:38.397Z,97857.53
2023-04-07T15:31:09.101Z,97870.69
2023-04-07T15:33:37.633Z,97865.47
2023-04-07T15:36:05.775Z,97862.44
2023-04-07T15:38:33.050Z,97876.13
2023-04-07T15:41:00.189Z,97885.97
2023-04-07T15:43:27.377Z,97877.81
2023-04-07T15:45:55.613Z,97878.38
2023-04-07T15:48:22.717Z,97878.28
2023-04-07T15:50:49.928Z,97883.63
2023-04-07T15:53:17.206Z,97887.47
2023-04-07T15:55:44.592Z,97882.69
2023-04-07T15:58:11.845Z,97890.66
2023-04-07T16:00:40.190Z,97895.94
2023-04-07T16:03:07.492Z,97898.53
2023-04-07T16:05:34.815Z,97901.66
2023-04-07T16:08:01.970Z,97901.94
2023-04-07T16:10:29.136Z,97898.56
2023-04-07T16:12:56.273Z,97901.38
2023-04-07T16:15:36.827Z,97907.34
2023-04-07T16:18:09.024Z,97906.00
2023-04-07T16:20:36.317Z,97913.78
2023-04-07T16:23:03.427Z,97915.47
2023-04-07T16:25:31.154Z,97915.91
2023-04-07T16:27:58.422Z,97916.03
2023-04-07T16:30:25.771Z,97913.44
2023-04-07T16:32:52.932Z,97924.56
2023-04-07T16:35:20.168Z,97921.34
2023-04-07T16:37:47.471Z,97927.69
2023-04-07T16:40:14.819Z,97927.66
2023-04-07T16:42:42.096Z,97924.47
2023-04-07T16:45:09.640Z,97929.41
2023-04-07T16:47:38.456Z,97930.53
2023-04-07T16:50:06.103Z,97937.41
2023-04-07T16:52:33.405Z,97941.75
2023-04-07T16:55:01.354Z,97942.25
2023-04-07T16:57:28.496Z,97936.78
2023-04-07T16:59:55.760Z,97942.94
2023-04-07T17:02:23.268Z,97948.38
2023-04-07T17:04:50.693Z,97945.19
2023-04-07T17:07:19.395Z,97950.53
2023-04-07T17:09:46.527Z,97954.31
2023-04-07T17:12:14.013Z,97970.81
2023-04-07T17:14:41.845Z,97957.72
2023-04-07T17:17:08.992Z,97964.25
2023-04-07T17:19:36.394Z,97973.28
2023-04-07T17:22:03.601Z,97980.94
2023-04-07T17:24:30.861Z,97982.88
2023-04-07T17:26:58.134Z,97980.09
2023-04-07T17:29:30.384Z,97985.44
2023-04-07T17:31:57.569Z,97990.06
2023-04-07T17:34:24.824Z,97996.34
2023-04-07T17:36:52.226Z,98006.31
2023-04-07T17:39:19.436Z,98008.72
2023-04-07T17:41:47.845Z,98015.13
2023-04-07T17:44:15.291Z,98018.16
2023-04-07T17:46:42.491Z,98018.13
2023-04-07T17:49:09.659Z,98023.50
2023-04-07T17:51:36.825Z,98030.00
2023-04-07T17:54:04.110Z,98030.28
2023-04-07T17:56:31.333Z,98041.22
2023-04-07T17:58:58.415Z,98043.34
2023-04-07T18:01:25.883Z,98052.84
2023-04-07T18:03:53.866Z,98046.16
2023-04-07T18:06:21.287Z,98048.19
2023-04-07T18:08:48.802Z,98053.16
2023-04-07T18:11:17.007Z,98063.72
2023-04-07T18:13:44.203Z,98069.78
2023-04-07T18:16:13.495Z,98061.16
2023-04-07T18:18:40.794Z,98062.56
2023-04-07T18:21:07.976Z,98070.34
2023-04-07T18:23:35.266Z,98074.97
2023-04-07T18:26:06.843Z,98075.84
2023-04-07T18:28:34.696Z,98070.41
2023-04-07T18:31:04.342Z,98088.06
2023-04-07T18:33:33.321Z,98082.31
2023-04-07T18:36:03.948Z,98094.56
2023-04-07T18:38:31.224Z,98102.41
2023-04-07T18:40:58.535Z,98100.63
2023-04-07T18:43:28.246Z,98102.03
2023-04-07T18:45:55.418Z,98107.50
2023-04-07T18:48:22.533Z,98102.41
2023-04-07T18:50:52.413Z,98112.59
2023-04-07T18:53:21.033Z,98123.97
2023-04-07T18:55:48.814Z,98123.13
2023-04-07T18:58:16.272Z,98128.00
2023-04-07T19:00:44.340Z,98137.06
2023-04-07T19:03:12.127Z,98143.50
2023-04-07T19:05:42.658Z,98132.63
2023-04-07T19:08:10.151Z,98140.94
2023-04-07T19:10:37.309Z,98141.09
2023-04-07T19:13:04.891Z,98147.25
2023-04-07T19:15:41.017Z,98149.22
2023-04-07T19:18:11.542Z,98146.41
2023-04-07T19:20:38.899Z,98146.03
2023-04-07T19:23:06.465Z,98149.63
2023-04-07T19:25:33.710Z,98157.22
2023-04-07T19:28:01.725Z,98163.88
2023-04-07T19:30:28.908Z,98167.63
2023-04-07T19:32:57.013Z,98173.06
2023-04-07T19:35:24.231Z,98177.69
2023-04-07T19:37:52.646Z,98180.56
2023-04-07T19:40:20.115Z,98176.13
2023-04-07T19:42:47.397Z,98180.16
2023-04-07T19:45:14.514Z,98175.25
2023-04-07T19:47:42.673Z,98176.66
2023-04-07T19:50:12.010Z,98176.47
2023-04-07T19:52:39.282Z,98171.72
2023-04-07T19:55:07.895Z,98174.75
2023-04-07T19:57:36.228Z,98173.56
2023-04-07T20:00:04.663Z,98185.44
2023-04-07T20:02:31.915Z,98185.88
2023-04-07T20:04:59.229Z,98188.19
2023-04-07T20:07:26.702Z,98196.16
2023-04-07T20:09:57.628Z,98189.06
2023-04-07T20:12:25.052Z,98193.66
2023-04-07T20:14:52.114Z,98204.69
2023-04-07T20:17:20.351Z,98188.22
2023-04-07T20:19:48.229Z,98199.38
2023-04-07T20:22:15.364Z,98194.66
2023-04-07T20:24:42.485Z,98193.47
2023-04-07T20:27:09.628Z,98203.97
2023-04-07T20:29:37.005Z,98205.84
2023-04-07T20:32:04.070Z,98202.69
2023-04-07T20:34:31.407Z,98207.19
2023-04-07T20:36:58.590Z,98214.44
2023-04-07T20:39:25.816Z,98208.28
2023-04-07T20:41:52.914Z,98214.72
2023-04-07T20:44:20.325Z,98219.84
2023-04-07T20:46:47.643Z,98221.19
2023-04-07T20:49:15.043Z,98213.06
2023-04-07T20:51:42.249Z,98221.53
2023-04-07T20:54:09.331Z,98216.81
2023-04-07T20:56:37.184Z,98223.31
2023-04-07T20:59:04.260Z,98220.28
2023-04-07T21:01:31.791Z,98214.34
2023-04-07T21:04:01.168Z,98208.91
2023-04-07T21:06:28.330Z,98207.34
2023-04-07T21:08:55.491Z,98215.31
2023-04-07T21:11:22.744Z,98212.09
2023-04-07T21:13:49.885Z,98212.06
2023-04-07T21:16:17.140Z,98210.38
2023-04-07T21:18:44.678Z,98214.41
2023-04-07T21:21:11.829Z,98204.84
2023-04-07T21:23:38.966Z,98204.41
2023-04-07T21:26:06.336Z,98211.50
2023-04-07T21:28:36.425Z,98210.59
2023-04-07T21:31:04.710Z,98200.44
2023-04-07T21:33:32.081Z,98206.59
2023-04-07T21:36:04.047Z,98207.66
2023-04-07T21:38:31.830Z,98206.38
2023-04-07T21:40:59.483Z,98204.41
2023-04-07T21:43:29.229Z,98218.50
2023-04-07T21:45:56.499Z,98208.41
2023-04-07T21:48:24.123Z,98212.69
2023-04-07T21:50:52.473Z,98207.31
2023-04-07T21:53:19.717Z,98203.50
2023-04-07T21:55:46.854Z,98204.91
2023-04-07T21:58:14.005Z,98206.91
2023-04-07T22:00:41.248Z,98201.03
2023-04-07T22:03:08.696Z,98199.97
2023-04-07T22:05:36.049Z,98201.66
2023-04-07T22:08:03.567Z,98200.63
2023-04-07T22:10:31.372Z,98201.13
2023-04-07T22:12:58.593Z,98196.88
2023-04-07T22:15:25.751Z,98203.81
2023-04-07T22:17:53.057Z,98206.47
2023-04-07T22:20:20.258Z,98198.50
2023-04-07T22:22:47.507Z,98202.66
2023-04-07T22:25:14.671Z,98195.50
2023-04-07T22:27:41.773Z,98204.28
2023-04-07T22:30:10.309Z,98200.28
2023-04-07T22:32:37.807Z,98203.22
2023-04-07T22:35:05.333Z,98205.44
2023-04-07T22:37:32.469Z,98196.91
2023-04-07T22:39:59.581Z,98198.91
2023-04-07T22:42:26.693Z,98206.22
2023-04-07T22:44:54.060Z,98204.34
2023-04-07T22:47:22.649Z,98207.56
2023-04-07T22:49:49.959Z,98203.09
2023-04-07T22:52:17.161Z,98205.94
2023-04-07T22:54:44.289Z,98195.16
2023-04-07T22:57:11.711Z,98199.84
2023-04-07T22:59:38.816Z,98203.69
2023-04-07T23:02:06.601Z,98193.75
2023-04-07T23:04:33.826Z,98198.56
2023-04-07T23:07:01.571Z,98198.53
2023-04-07T23:09:30.697Z,98205.09
2023-04-07T23:11:58.244Z,98202.97
2023-04-07T23:14:25.407Z,98198.44
2023-04-07T23:16:54.680Z,98199.31
2023-04-07T23:19:22.328Z,98208.19
2023-04-07T23:21:49.779Z,98196.59
2023-04-07T23:24:16.920Z,98209.31
2023-04-07T23:26:44.015Z,98210.97
2023-04-07T23:29:11.342Z,98199.72
2023-04-07T23:31:38.466Z,98197.16
2023-04-07T23:34:05.584Z,98195.84
2023-04-07T23:36:33.447Z,98198.56
2023-04-07T23:39:02.344Z,98201.47
2023-04-07T23:41:29.557Z,98201.09
2023-04-07T23:43:57.467Z,98203.28
2023-04-07T23:46:24.787Z,98200.56
2023-04-07T23:48:52.196Z,98197.53
2023-04-07T23:51:19.892Z,98205.88
2023-04-07T23:53:47.214Z,98200.84
2023-04-07T23:56:14.366Z,98195.34
2023-04-07T23:58:41.600Z,98203.44
